Time;durP1;ratioP1;P1;durP2;ratioP2;P2;SDS_P1;SDS_P2;PMS_P1;PMS_P2;Temp;Humidity;BMP_temperature;BMP_pressure;BME280_temperature;BME280_humidity;BME280_pressure;Samples;Min_cycle;Max_cycle;Signal;HPM_P1;HPM_P2
2022/09/24 00:01:23;;;;;;;9.23;5.70;;;;;;;;;;5019536;28;20096;-77
2022/09/24 00:03:53;;;;;;;7.22;4.97;;;;;;;;;;5036480;28;20108;-78
2022/09/24 00:06:20;;;;;;;8.90;5.40;;;;;;;;;;5036131;28;20385;-78
2022/09/24 00:08:46;;;;;;;8.68;5.20;;;;;;;;;;5019433;28;20059;-78
2022/09/24 00:11:12;;;;;;;6.85;5.03;;;;;;;;;;5054161;28;20032;-77
2022/09/24 00:13:38;;;;;;;6.15;4.85;;;;;;;;;;5053880;28;20488;-77
2022/09/24 00:16:09;;;;;;;8.65;5.10;;;;;;;;;;5036205;28;20052;-78
2022/09/24 00:18:35;;;;;;;9.55;5.30;;;;;;;;;;5035638;28;20025;-78
2022/09/24 00:21:10;;;;;;;8.23;5.50;;;;;;;;;;5053632;28;20032;-76
2022/09/24 00:23:36;;;;;;;6.65;4.88;;;;;;;;;;5053679;28;20017;-78
2022/09/24 00:28:48;;;;;;;7.43;6.05;;;;;;;;;;5053819;28;20028;-77
2022/09/24 00:31:14;;;;;;;6.38;5.05;;;;;;;;;;5035766;28;20074;-77
2022/09/24 00:33:39;;;;;;;6.32;5.40;;;;;;;;;;5035763;28;20183;-77
2022/09/24 00:36:05;;;;;;;6.90;4.93;;;;;;;;;;5053877;28;20036;-76
2022/09/24 00:38:31;;;;;;;6.40;5.10;;;;;;;;;;5053310;28;20032;-78
2022/09/24 00:40:58;;;;;;;5.80;5.20;;;;;;;;;;5035440;28;20059;-77
2022/09/24 00:43:35;;;;;;;6.20;5.05;;;;;;;;;;5019161;28;20060;-77
2022/09/24 00:46:08;;;;;;;6.47;5.50;;;;;;;;;;5053280;28;20070;-77
2022/09/24 00:48:34;;;;;;;5.70;4.80;;;;;;;;;;5035300;28;20079;-76
2022/09/24 00:51:01;;;;;;;7.47;5.53;;;;;;;;;;5035515;28;20108;-78
2022/09/24 00:53:30;;;;;;;10.13;6.15;;;;;;;;;;5018752;28;20091;-78
2022/09/24 00:55:56;;;;;;;6.28;5.10;;;;;;;;;;5036084;28;20481;-78
2022/09/24 00:58:22;;;;;;;6.20;5.35;;;;;;;;;;5034964;28;20036;-78
2022/09/24 01:00:49;;;;;;;5.60;5.00;;;;;;;;;;5018749;28;20033;-77
2022/09/24 01:03:18;;;;;;;6.25;5.00;;;;;;;;;;5053111;28;20061;-78
2022/09/24 01:05:45;;;;;;;7.80;5.22;;;;;;;;;;5035677;28;20039;-77
2022/09/24 01:08:16;;;;;;;9.05;5.15;;;;;;;;;;5034976;28;20087;-78
2022/09/24 01:10:55;;;;;;;5.63;4.70;;;;;;;;;;5018550;28;20120;-78
2022/09/24 01:13:55;;;;;;;7.03;4.70;;;;;;;;;;5035305;28;20057;-78
2022/09/24 01:16:26;;;;;;;5.28;4.70;;;;;;;;;;5029600;28;20048;-78
2022/09/24 01:19:17;;;;;;;5.50;4.55;;;;;;;;;;5034765;28;20036;-78
2022/09/24 01:21:49;;;;;;;7.25;5.22;;;;;;;;;;5034981;28;20362;-76
2022/09/24 01:24:27;;;;;;;5.65;4.70;;;;;;;;;;5052977;28;20021;-76
2022/09/24 01:27:02;;;;;;;6.15;4.85;;;;;;;;;;5035238;28;20033;-78
2022/09/24 01:29:40;;;;;;;4.70;4.20;;;;;;;;;;5034912;28;20048;-76
2022/09/24 01:32:13;;;;;;;5.82;4.50;;;;;;;;;;5035906;28;20477;-77
2022/09/24 01:35:14;;;;;;;4.85;4.35;;;;;;;;;;5018341;28;20056;-78
2022/09/24 01:37:43;;;;;;;5.53;4.53;;;;;;;;;;5041918;28;20134;-78
2022/09/24 01:40:10;;;;;;;5.95;4.97;;;;;;;;;;5034825;28;20041;-78
2022/09/24 01:42:37;;;;;;;4.97;4.40;;;;;;;;;;5034846;28;20029;-78
2022/09/24 01:45:03;;;;;;;6.80;5.10;;;;;;;;;;5034869;28;20021;-76
2022/09/24 01:47:31;;;;;;;4.93;4.30;;;;;;;;;;5052398;28;20040;-78
2022/09/24 01:49:57;;;;;;;6.55;4.43;;;;;;;;;;5034873;28;20017;-76
2022/09/24 01:52:31;;;;;;;5.25;4.22;;;;;;;;;;5034653;28;20025;-78
2022/09/24 01:54:56;;;;;;;4.80;4.10;;;;;;;;;;5035208;28;20033;-77
2022/09/24 01:57:24;;;;;;;5.47;4.05;;;;;;;;;;5018182;28;20491;-77
2022/09/24 01:59:54;;;;;;;5.13;4.30;;;;;;;;;;5018039;28;20079;-78
2022/09/24 02:02:57;;;;;;;5.50;4.53;;;;;;;;;;5034383;28;20045;-78
2022/09/24 02:05:33;;;;;;;5.30;4.32;;;;;;;;;;4994958;28;20074;-77
2022/09/24 02:08:06;;;;;;;5.75;4.25;;;;;;;;;;4978708;28;20026;-78
2022/09/24 02:10:38;;;;;;;5.20;4.68;;;;;;;;;;4994760;28;20549;-77
2022/09/24 02:13:06;;;;;;;5.82;4.82;;;;;;;;;;4994748;28;20042;-77
2022/09/24 02:15:33;;;;;;;5.93;4.90;;;;;;;;;;4962291;28;20034;-77
2022/09/24 02:18:05;;;;;;;4.82;4.30;;;;;;;;;;4995084;28;20035;-77
2022/09/24 02:20:32;;;;;;;6.70;4.43;;;;;;;;;;4978523;28;20038;-78
2022/09/24 02:22:58;;;;;;;5.22;4.47;;;;;;;;;;4978311;28;20041;-78
2022/09/24 02:25:37;;;;;;;6.45;5.07;;;;;;;;;;4978489;28;20046;-78
2022/09/24 02:28:02;;;;;;;5.15;4.60;;;;;;;;;;4962000;28;20063;-77
2022/09/24 02:30:33;;;;;;;6.57;4.72;;;;;;;;;;4962004;28;20034;-77
2022/09/24 02:32:58;;;;;;;6.85;4.97;;;;;;;;;;4977964;28;20502;-77
2022/09/24 02:35:24;;;;;;;6.70;5.20;;;;;;;;;;4977924;28;20046;-78
2022/09/24 02:37:49;;;;;;;7.28;5.18;;;;;;;;;;4977940;28;20034;-78
2022/09/24 02:40:15;;;;;;;5.47;4.55;;;;;;;;;;5048430;28;20045;-78
2022/09/24 02:42:42;;;;;;;6.00;4.68;;;;;;;;;;5037635;28;20108;-77
2022/09/24 02:45:08;;;;;;;5.80;4.85;;;;;;;;;;5037968;28;20541;-78
2022/09/24 02:47:33;;;;;;;9.50;5.20;;;;;;;;;;5037466;28;20128;-78
2022/09/24 02:49:59;;;;;;;5.78;4.70;;;;;;;;;;5037562;28;20112;-78
2022/09/24 02:52:24;;;;;;;7.55;5.10;;;;;;;;;;5055553;28;20095;-78
2022/09/24 02:54:50;;;;;;;5.78;4.95;;;;;;;;;;5037955;28;20036;-78
2022/09/24 02:57:17;;;;;;;5.35;4.65;;;;;;;;;;5055025;28;20086;-77
2022/09/24 02:59:42;;;;;;;6.00;5.10;;;;;;;;;;5037717;28;20053;-78
2022/09/24 03:02:08;;;;;;;5.93;5.20;;;;;;;;;;5037234;28;20088;-78
2022/09/24 03:04:33;;;;;;;7.50;4.90;;;;;;;;;;5055266;28;20056;-78
2022/09/24 03:06:59;;;;;;;7.50;5.45;;;;;;;;;;5055028;28;20025;-78
2022/09/24 03:09:24;;;;;;;6.07;5.30;;;;;;;;;;5054985;28;20025;-78
2022/09/24 03:11:49;;;;;;;5.82;5.22;;;;;;;;;;5054920;28;20084;-77
2022/09/24 03:14:15;;;;;;;6.63;5.30;;;;;;;;;;5054991;28;20036;-78
2022/09/24 03:16:40;;;;;;;6.47;5.25;;;;;;;;;;5036937;28;20532;-78
2022/09/24 03:19:06;;;;;;;6.47;5.45;;;;;;;;;;5055313;28;20055;-77
2022/09/24 03:21:31;;;;;;;8.52;5.40;;;;;;;;;;5054683;28;20041;-78
2022/09/24 03:23:57;;;;;;;6.95;5.32;;;;;;;;;;5054980;28;20025;-77
2022/09/24 03:26:22;;;;;;;5.70;5.10;;;;;;;;;;5036868;28;20036;-78
2022/09/24 03:28:47;;;;;;;6.53;5.43;;;;;;;;;;5036807;28;20025;-78
2022/09/24 03:31:13;;;;;;;7.20;5.53;;;;;;;;;;5036781;28;20041;-78
2022/09/24 03:33:44;;;;;;;18.05;6.00;;;;;;;;;;5036848;28;20033;-78
2022/09/24 03:36:21;;;;;;;7.93;5.25;;;;;;;;;;5020454;28;20033;-78
2022/09/24 03:38:48;;;;;;;6.22;5.40;;;;;;;;;;5054471;28;20025;-78
2022/09/24 03:41:15;;;;;;;9.15;5.85;;;;;;;;;;5054899;28;20108;-78
2022/09/24 03:43:40;;;;;;;7.40;5.85;;;;;;;;;;5037086;28;20021;-78
2022/09/24 03:46:07;;;;;;;6.05;5.45;;;;;;;;;;5054364;28;20035;-77
2022/09/24 03:48:34;;;;;;;6.55;5.00;;;;;;;;;;5036503;28;20021;-78
2022/09/24 03:51:04;;;;;;;11.43;5.70;;;;;;;;;;5036437;28;20147;-78
2022/09/24 03:53:30;;;;;;;7.88;6.03;;;;;;;;;;5036985;28;20025;-78
2022/09/24 03:55:56;;;;;;;6.32;5.47;;;;;;;;;;5036501;28;20033;-78
2022/09/24 03:58:22;;;;;;;8.00;5.50;;;;;;;;;;5036296;28;20029;-78
2022/09/24 04:00:47;;;;;;;8.75;5.95;;;;;;;;;;5036260;28;20032;-78
2022/09/24 04:03:13;;;;;;;8.38;5.65;;;;;;;;;;5036088;28;20127;-77
2022/09/24 04:05:39;;;;;;;6.93;5.88;;;;;;;;;;5019849;28;20037;-78
2022/09/24 04:08:04;;;;;;;7.90;6.38;;;;;;;;;;5054214;28;20029;-79
2022/09/24 04:10:30;;;;;;;10.13;6.47;;;;;;;;;;5036151;28;20025;-78
2022/09/24 04:12:56;;;;;;;6.93;6.00;;;;;;;;;;5053820;28;20477;-78
2022/09/24 04:15:22;;;;;;;8.15;6.40;;;;;;;;;;5035978;28;20029;-78
2022/09/24 04:17:56;;;;;;;8.07;6.03;;;;;;;;;;5053860;28;20025;-78
2022/09/24 04:20:24;;;;;;;8.93;6.63;;;;;;;;;;5036386;28;20029;-78
2022/09/24 04:22:51;;;;;;;9.20;6.40;;;;;;;;;;5053526;28;20108;-78
2022/09/24 04:25:16;;;;;;;7.82;6.80;;;;;;;;;;5053703;28;20033;-79
2022/09/24 04:27:43;;;;;;;7.68;5.93;;;;;;;;;;5053742;28;20040;-77
2022/09/24 04:30:11;;;;;;;8.25;6.28;;;;;;;;;;5019356;28;20032;-78
2022/09/24 04:32:37;;;;;;;7.10;6.07;;;;;;;;;;5053914;28;20025;-78
2022/09/24 04:35:02;;;;;;;6.35;5.32;;;;;;;;;;5053998;28;20461;-77
2022/09/24 04:37:27;;;;;;;7.78;6.38;;;;;;;;;;5053793;28;20028;-77
2022/09/24 04:39:53;;;;;;;7.32;6.32;;;;;;;;;;5053699;28;20035;-78
2022/09/24 04:42:18;;;;;;;7.95;6.43;;;;;;;;;;5053960;28;20029;-78
2022/09/24 04:44:47;;;;;;;8.50;5.80;;;;;;;;;;5036005;28;20029;-78
2022/09/24 04:47:13;;;;;;;9.93;7.15;;;;;;;;;;5054521;28;20377;-76
2022/09/24 04:49:39;;;;;;;8.13;6.43;;;;;;;;;;5036878;28;20033;-77
2022/09/24 04:52:05;;;;;;;8.07;6.68;;;;;;;;;;5053771;28;20029;-77
2022/09/24 04:54:30;;;;;;;7.55;6.00;;;;;;;;;;5053655;28;20366;-78
2022/09/24 04:56:56;;;;;;;11.43;6.43;;;;;;;;;;5053398;28;20366;-78
2022/09/24 04:59:22;;;;;;;9.02;7.05;;;;;;;;;;5036030;28;20508;-80
2022/09/24 05:01:47;;;;;;;9.00;6.88;;;;;;;;;;5054656;28;20056;-79
2022/09/24 05:04:13;;;;;;;11.73;6.25;;;;;;;;;;5036033;28;20020;-78
2022/09/24 05:06:38;;;;;;;13.90;6.53;;;;;;;;;;5053873;28;20488;-78
2022/09/24 05:09:03;;;;;;;10.45;6.10;;;;;;;;;;5036021;28;20107;-78
2022/09/24 05:11:29;;;;;;;9.55;6.25;;;;;;;;;;5019180;28;20031;-78
2022/09/24 05:13:54;;;;;;;12.00;5.95;;;;;;;;;;5036974;28;20037;-78
2022/09/24 05:16:20;;;;;;;11.63;6.55;;;;;;;;;;5037758;28;20084;-79
2022/09/24 05:18:45;;;;;;;11.23;7.20;;;;;;;;;;5055313;28;20029;-78
2022/09/24 05:21:10;;;;;;;13.25;6.28;;;;;;;;;;5037413;28;20052;-79
2022/09/24 05:23:36;;;;;;;10.15;6.35;;;;;;;;;;5054878;28;20053;-79
2022/09/24 05:28:45;;;;;;;12.65;6.30;;;;;;;;;;5054938;28;20084;-79
2022/09/24 05:31:10;;;;;;;10.10;7.00;;;;;;;;;;5055091;28;20041;-78
2022/09/24 05:33:36;;;;;;;9.65;6.75;;;;;;;;;;5020751;28;20025;-78
2022/09/24 05:36:03;;;;;;;11.73;6.55;;;;;;;;;;5037060;28;20083;-78
2022/09/24 05:38:29;;;;;;;8.27;6.25;;;;;;;;;;5055154;28;20056;-77
2022/09/24 05:40:55;;;;;;;10.20;6.60;;;;;;;;;;5039398;28;20038;-79
2022/09/24 05:43:20;;;;;;;12.93;6.43;;;;;;;;;;5038951;28;20033;-77
2022/09/24 05:45:47;;;;;;;12.23;6.90;;;;;;;;;;5039295;28;20040;-77
2022/09/24 05:48:12;;;;;;;12.90;6.93;;;;;;;;;;5056584;28;20021;-78
2022/09/24 05:50:38;;;;;;;10.35;6.60;;;;;;;;;;5056373;28;20043;-77
2022/09/24 05:53:04;;;;;;;10.10;6.80;;;;;;;;;;5056042;28;20021;-77
2022/09/24 05:55:29;;;;;;;9.77;6.10;;;;;;;;;;5038495;28;20099;-78
2022/09/24 05:57:55;;;;;;;11.75;6.60;;;;;;;;;;5038716;28;20405;-78
2022/09/24 06:00:20;;;;;;;9.95;5.97;;;;;;;;;;5038984;28;20025;-77
2022/09/24 06:02:46;;;;;;;13.10;6.28;;;;;;;;;;5021626;28;20055;-77
2022/09/24 06:05:11;;;;;;;12.73;6.80;;;;;;;;;;5037899;28;20481;-77
2022/09/24 06:07:37;;;;;;;7.00;5.55;;;;;;;;;;5038111;28;20408;-77
2022/09/24 06:10:04;;;;;;;13.45;6.20;;;;;;;;;;5055658;28;20079;-78
2022/09/24 06:12:29;;;;;;;8.70;6.30;;;;;;;;;;5005335;28;20048;-77
2022/09/24 06:14:55;;;;;;;13.05;5.82;;;;;;;;;;5005624;28;20038;-77
2022/09/24 06:17:20;;;;;;;11.80;5.85;;;;;;;;;;5021504;28;20033;-78
2022/09/24 06:19:46;;;;;;;7.97;6.13;;;;;;;;;;5021351;28;20033;-77
2022/09/24 06:22:12;;;;;;;10.07;6.30;;;;;;;;;;5021254;28;20524;-78
2022/09/24 06:24:38;;;;;;;7.60;5.55;;;;;;;;;;5037463;28;20025;-77
2022/09/24 06:27:03;;;;;;;11.50;6.05;;;;;;;;;;5021424;28;20029;-78
2022/09/24 06:29:29;;;;;;;8.43;6.05;;;;;;;;;;5021123;28;20116;-77
2022/09/24 06:31:54;;;;;;;8.95;5.53;;;;;;;;;;5037680;28;20032;-77
2022/09/24 06:34:19;;;;;;;8.10;5.85;;;;;;;;;;5055388;28;20541;-77
2022/09/24 06:36:45;;;;;;;13.35;6.05;;;;;;;;;;5055328;28;20044;-77
2022/09/24 06:39:10;;;;;;;9.48;5.78;;;;;;;;;;5055082;28;20041;-77
2022/09/24 06:41:36;;;;;;;8.13;6.25;;;;;;;;;;5037314;28;20111;-79
2022/09/24 06:44:01;;;;;;;12.02;5.28;;;;;;;;;;5020900;28;20036;-80
2022/09/24 06:46:27;;;;;;;9.02;5.53;;;;;;;;;;5055463;28;20033;-81
2022/09/24 06:48:55;;;;;;;15.35;5.50;;;;;;;;;;5054662;28;20036;-82
2022/09/24 06:51:20;;;;;;;14.10;5.82;;;;;;;;;;5055032;28;20071;-81
2022/09/24 06:53:50;;;;;;;14.75;6.10;;;;;;;;;;5020339;28;20029;-82
2022/09/24 06:56:15;;;;;;;10.45;5.97;;;;;;;;;;5020544;28;20107;-82
2022/09/24 06:58:40;;;;;;;12.10;6.28;;;;;;;;;;5054822;28;20041;-82
2022/09/24 07:01:07;;;;;;;28.90;7.75;;;;;;;;;;5054969;28;20108;-83
2022/09/24 07:03:33;;;;;;;16.65;7.38;;;;;;;;;;5054908;28;20025;-83
2022/09/24 07:06:00;;;;;;;16.33;6.80;;;;;;;;;;5020649;28;20029;-83
2022/09/24 07:08:25;;;;;;;21.50;7.85;;;;;;;;;;5054575;28;20033;-82
2022/09/24 07:10:51;;;;;;;22.45;7.82;;;;;;;;;;5037420;28;20497;-82
2022/09/24 07:13:17;;;;;;;17.27;7.60;;;;;;;;;;5037684;28;20033;-83
2022/09/24 07:15:44;;;;;;;13.70;7.47;;;;;;;;;;5038040;28;20485;-82
2022/09/24 07:18:10;;;;;;;17.33;7.70;;;;;;;;;;5020912;28;20151;-83
2022/09/24 07:20:35;;;;;;;16.90;7.80;;;;;;;;;;5055237;28;20108;-83
2022/09/24 07:23:05;;;;;;;19.92;7.22;;;;;;;;;;5021005;28;20029;-83
2022/09/24 07:25:31;;;;;;;16.05;7.30;;;;;;;;;;5020893;28;20510;-83
2022/09/24 07:28:06;;;;;;;14.32;6.88;;;;;;;;;;5055123;28;20025;-83
2022/09/24 07:30:33;;;;;;;15.65;7.30;;;;;;;;;;5037222;28;20029;-83
2022/09/24 07:32:58;;;;;;;11.68;7.45;;;;;;;;;;5037245;28;20040;-82
2022/09/24 07:35:25;;;;;;;14.55;7.45;;;;;;;;;;5055486;28;20033;-84
2022/09/24 07:38:02;;;;;;;12.80;6.97;;;;;;;;;;5021223;28;20493;-83
2022/09/24 07:40:28;;;;;;;15.95;8.25;;;;;;;;;;5020529;28;20113;-85
2022/09/24 07:42:54;;;;;;;14.55;7.60;;;;;;;;;;5037583;28;20040;-85
2022/09/24 07:45:20;;;;;;;12.35;7.40;;;;;;;;;;5054859;28;20025;-84
2022/09/24 07:47:46;;;;;;;13.23;7.03;;;;;;;;;;5054950;28;20029;-83
2022/09/24 07:50:12;;;;;;;10.07;7.00;;;;;;;;;;5036943;28;20037;-83
2022/09/24 07:52:38;;;;;;;12.75;7.05;;;;;;;;;;5055000;28;20151;-83
2022/09/24 07:55:04;;;;;;;15.65;6.53;;;;;;;;;;5055029;28;20385;-83
2022/09/24 07:57:29;;;;;;;11.48;6.75;;;;;;;;;;5036602;28;20025;-82
2022/09/24 07:59:54;;;;;;;10.77;6.82;;;;;;;;;;5054448;28;20107;-82
2022/09/24 08:02:20;;;;;;;13.88;6.97;;;;;;;;;;5035890;28;20049;-83
2022/09/24 08:04:45;;;;;;;12.70;7.15;;;;;;;;;;5054958;28;20033;-84
2022/09/24 08:07:11;;;;;;;11.13;6.50;;;;;;;;;;5054504;28;20114;-82
2022/09/24 08:09:37;;;;;;;11.48;7.07;;;;;;;;;;5036516;28;20024;-82
2022/09/24 08:12:03;;;;;;;12.38;6.47;;;;;;;;;;5054557;28;20025;-83
2022/09/24 08:14:28;;;;;;;11.63;7.10;;;;;;;;;;5036621;28;20032;-83
2022/09/24 08:16:54;;;;;;;12.55;6.20;;;;;;;;;;5036915;28;20036;-82
2022/09/24 08:19:19;;;;;;;8.75;5.50;;;;;;;;;;5036307;28;20037;-83
2022/09/24 08:21:47;;;;;;;9.05;6.25;;;;;;;;;;5019718;28;20472;-83
2022/09/24 08:24:13;;;;;;;8.65;6.10;;;;;;;;;;5036886;28;20072;-83
2022/09/24 08:26:38;;;;;;;12.38;7.10;;;;;;;;;;5036480;28;20512;-83
2022/09/24 08:29:04;;;;;;;7.88;5.82;;;;;;;;;;5019811;28;20043;-83
2022/09/24 08:31:30;;;;;;;8.43;5.85;;;;;;;;;;5019693;28;20040;-82
2022/09/24 08:33:56;;;;;;;9.15;6.30;;;;;;;;;;5036022;28;20052;-82
2022/09/24 08:36:21;;;;;;;10.20;6.60;;;;;;;;;;5035947;28;20037;-80
2022/09/24 08:38:46;;;;;;;8.63;6.00;;;;;;;;;;5054168;28;20029;-78
2022/09/24 08:41:20;;;;;;;10.80;6.38;;;;;;;;;;5036356;28;20050;-79
2022/09/24 08:43:56;;;;;;;9.43;6.63;;;;;;;;;;5019761;28;20615;-82
2022/09/24 08:49:12;;;;;;;9.32;5.93;;;;;;;;;;5039112;28;20073;-81
2022/09/24 08:51:45;;;;;;;9.93;6.90;;;;;;;;;;5054161;28;20024;-81
2022/09/24 08:54:13;;;;;;;8.75;6.05;;;;;;;;;;5019457;28;20032;-81
2022/09/24 08:56:42;;;;;;;11.32;6.57;;;;;;;;;;5054585;28;20112;-81
2022/09/24 08:59:30;;;;;;;9.15;6.10;;;;;;;;;;5037292;28;20103;-80
2022/09/24 09:02:19;;;;;;;9.80;5.80;;;;;;;;;;5035699;28;20045;-80
2022/09/24 09:05:09;;;;;;;10.38;6.25;;;;;;;;;;5053774;28;20025;-80
2022/09/24 09:07:48;;;;;;;11.82;6.60;;;;;;;;;;5016990;28;20099;-82
2022/09/24 09:10:16;;;;;;;13.45;6.93;;;;;;;;;;5012603;28;20025;-81
2022/09/24 09:12:45;;;;;;;12.27;5.75;;;;;;;;;;5018700;28;20026;-80
2022/09/24 09:15:17;;;;;;;14.30;6.55;;;;;;;;;;5008883;28;20033;-83
2022/09/24 09:17:53;;;;;;;11.93;6.90;;;;;;;;;;5016115;28;20040;-82
2022/09/24 09:20:23;;;;;;;11.45;6.45;;;;;;;;;;5004532;28;20038;-82
2022/09/24 09:22:50;;;;;;;10.82;6.28;;;;;;;;;;5031351;28;20037;-81
2022/09/24 09:25:24;;;;;;;9.73;6.38;;;;;;;;;;5015916;28;20037;-84
2022/09/24 09:28:00;;;;;;;9.18;6.25;;;;;;;;;;5015680;28;20024;-81
2022/09/24 09:30:37;;;;;;;12.45;6.03;;;;;;;;;;4999193;28;20026;-80
2022/09/24 09:33:19;;;;;;;11.15;6.63;;;;;;;;;;4999342;28;20036;-81
2022/09/24 09:36:21;;;;;;;11.07;5.82;;;;;;;;;;4999043;28;20052;-82
2022/09/24 09:39:00;;;;;;;9.95;6.55;;;;;;;;;;5022301;28;20041;-81
2022/09/24 09:41:36;;;;;;;8.93;6.53;;;;;;;;;;5016062;28;20021;-81
2022/09/24 09:44:14;;;;;;;9.85;6.20;;;;;;;;;;5015634;28;20025;-81
2022/09/24 09:47:05;;;;;;;15.38;5.80;;;;;;;;;;5015425;28;20025;-81
2022/09/24 09:49:34;;;;;;;10.52;6.00;;;;;;;;;;5033138;28;20037;-82
2022/09/24 09:52:03;;;;;;;9.13;6.50;;;;;;;;;;5015492;28;20443;-82
2022/09/24 09:54:40;;;;;;;10.32;6.07;;;;;;;;;;5015545;28;20040;-81
2022/09/24 09:57:07;;;;;;;10.13;6.18;;;;;;;;;;5015175;28;20060;-81
2022/09/24 09:59:34;;;;;;;10.52;6.53;;;;;;;;;;5015444;28;20030;-81
2022/09/24 10:02:00;;;;;;;8.50;6.68;;;;;;;;;;4998816;28;20149;-81
2022/09/24 10:04:34;;;;;;;10.70;7.00;;;;;;;;;;5032913;28;20493;-81
2022/09/24 10:07:10;;;;;;;8.88;5.97;;;;;;;;;;5033174;28;20052;-81
2022/09/24 10:09:37;;;;;;;9.82;6.43;;;;;;;;;;5015011;28;20502;-81
2022/09/24 10:12:15;;;;;;;9.68;6.63;;;;;;;;;;5015354;28;20029;-81
2022/09/24 10:14:41;;;;;;;10.20;6.80;;;;;;;;;;5032846;28;20033;-81
2022/09/24 10:17:13;;;;;;;8.50;6.55;;;;;;;;;;5014865;28;20157;-80
2022/09/24 10:19:39;;;;;;;9.50;6.53;;;;;;;;;;5015518;28;20032;-81
2022/09/24 10:22:25;;;;;;;10.50;6.43;;;;;;;;;;4998983;28;20386;-80
2022/09/24 10:24:52;;;;;;;9.18;6.55;;;;;;;;;;5000743;28;20044;-82
2022/09/24 10:27:33;;;;;;;8.52;7.10;;;;;;;;;;5002351;28;20026;-82
2022/09/24 10:32:47;;;;;;;7.65;5.82;;;;;;;;;;5036474;28;20037;-83
2022/09/24 10:35:33;;;;;;;7.72;6.35;;;;;;;;;;5002507;28;20029;-82
2022/09/24 10:37:59;;;;;;;9.90;5.90;;;;;;;;;;5002318;28;20021;-82
2022/09/24 10:40:45;;;;;;;6.65;5.95;;;;;;;;;;5018787;28;20414;-81
2022/09/24 10:43:19;;;;;;;6.80;5.85;;;;;;;;;;5018397;28;20119;-82
2022/09/24 10:46:03;;;;;;;8.45;5.72;;;;;;;;;;5018374;28;20393;-83
2022/09/24 10:48:41;;;;;;;7.10;5.47;;;;;;;;;;5018707;28;20018;-81
2022/09/24 10:51:30;;;;;;;6.50;5.43;;;;;;;;;;5001985;28;20505;-82
2022/09/24 10:54:17;;;;;;;6.60;5.22;;;;;;;;;;5018283;28;20032;-81
2022/09/24 10:56:46;;;;;;;7.35;4.82;;;;;;;;;;5036420;28;20045;-80
2022/09/24 10:59:12;;;;;;;9.15;4.80;;;;;;;;;;5017561;28;20047;-81
2022/09/24 11:02:04;;;;;;;6.80;4.82;;;;;;;;;;5017545;28;20116;-81
2022/09/24 11:04:59;;;;;;;6.80;4.50;;;;;;;;;;5020983;28;20026;-80
2022/09/24 11:07:43;;;;;;;5.57;4.35;;;;;;;;;;5018783;28;20013;-80
2022/09/24 11:10:14;;;;;;;;;;;;;;;;;;5026960;28;20048;-83
2022/09/24 11:12:53;;;;;;;5.57;4.32;;;;;;;;;;5055412;28;19908;-83
2022/09/24 11:15:27;;;;;;;5.18;4.35;;;;;;;;;;5039775;28;20106;-82
2022/09/24 11:18:14;;;;;;;5.32;4.22;;;;;;;;;;5055317;28;20025;-80
2022/09/24 11:21:10;;;;;;;5.72;3.53;;;;;;;;;;5033275;28;20032;-81
2022/09/24 11:23:55;;;;;;;5.90;3.92;;;;;;;;;;5037322;28;20041;-82
2022/09/24 11:26:34;;;;;;;6.18;3.90;;;;;;;;;;5018672;28;20057;-82
2022/09/24 11:29:03;;;;;;;7.88;4.13;;;;;;;;;;5020479;28;20045;-82
2022/09/24 11:31:48;;;;;;;5.80;4.10;;;;;;;;;;5017636;28;20120;-82
2022/09/24 11:35:05;;;;;;;8.95;4.22;;;;;;;;;;5034833;28;20053;-82
2022/09/24 11:37:49;;;;;;;6.20;3.58;;;;;;;;;;4984006;28;20456;-82
2022/09/24 11:40:24;;;;;;;6.70;3.92;;;;;;;;;;5034815;28;20486;-82
2022/09/24 11:43:01;;;;;;;8.20;4.35;;;;;;;;;;5016563;28;20387;-82
2022/09/24 11:45:35;;;;;;;7.40;3.95;;;;;;;;;;5034428;28;20056;-80
2022/09/24 11:48:19;;;;;;;;;;;;;;;;;;5017546;28;20517;-80
2022/09/24 11:51:15;;;;;;;8.57;4.13;;;;;;;;;;5034660;28;19916;-80
2022/09/24 11:54:00;;;;;;;6.20;3.50;;;;;;;;;;5010472;28;20709;-80
2022/09/24 11:56:30;;;;;;;7.25;4.25;;;;;;;;;;5035180;28;20421;-80
2022/09/24 11:59:08;;;;;;;4.10;3.42;;;;;;;;;;5000495;28;20033;-80
2022/09/24 12:01:37;;;;;;;6.65;4.25;;;;;;;;;;5021519;28;20052;-79
2022/09/24 12:04:09;;;;;;;8.05;4.10;;;;;;;;;;5054708;28;20024;-79
2022/09/24 12:06:41;;;;;;;6.80;4.22;;;;;;;;;;5036643;28;20598;-80
2022/09/24 12:09:15;;;;;;;5.75;3.90;;;;;;;;;;5037029;28;20068;-79
2022/09/24 12:11:56;;;;;;;7.45;4.28;;;;;;;;;;5036721;28;20056;-80
2022/09/24 12:14:28;;;;;;;5.90;3.95;;;;;;;;;;5020258;28;20062;-79
2022/09/24 12:17:04;;;;;;;7.38;3.75;;;;;;;;;;5036614;28;20020;-79
2022/09/24 12:19:34;;;;;;;7.05;3.78;;;;;;;;;;5036435;28;20029;-80
2022/09/24 12:22:01;;;;;;;7.40;3.75;;;;;;;;;;5039298;28;20096;-80
2022/09/24 12:24:34;;;;;;;5.30;3.08;;;;;;;;;;5044694;28;20021;-80
2022/09/24 12:27:22;;;;;;;4.75;2.90;;;;;;;;;;5025806;28;20028;-79
2022/09/24 12:32:59;;;;;;;5.03;3.00;;;;;;;;;;5039696;28;20052;-80
2022/09/24 12:35:27;;;;;;;7.18;2.88;;;;;;;;;;5036332;28;20017;-80
2022/09/24 12:38:13;;;;;;;4.43;2.83;;;;;;;;;;5053999;28;20021;-79
2022/09/24 12:40:56;;;;;;;2.95;2.33;;;;;;;;;;5054413;28;20441;-79
2022/09/24 12:43:46;;;;;;;3.20;2.05;;;;;;;;;;5036559;28;20457;-79
2022/09/24 12:46:38;;;;;;;2.97;2.17;;;;;;;;;;5035968;28;20086;-79
2022/09/24 12:49:03;;;;;;;3.80;2.10;;;;;;;;;;5036187;28;20027;-79
2022/09/24 12:51:34;;;;;;;4.10;1.92;;;;;;;;;;5036101;28;20473;-79
2022/09/24 12:54:30;;;;;;;4.03;2.20;;;;;;;;;;5019570;28;20028;-79
2022/09/24 12:57:07;;;;;;;3.08;2.20;;;;;;;;;;5035872;28;20037;-80
2022/09/24 12:59:32;;;;;;;5.32;2.03;;;;;;;;;;5019267;28;20424;-79
2022/09/24 13:02:18;;;;;;;3.70;1.80;;;;;;;;;;5019223;28;20053;-79
2022/09/24 13:04:49;;;;;;;2.35;1.70;;;;;;;;;;5035715;28;20415;-79
2022/09/24 13:07:30;;;;;;;2.67;1.80;;;;;;;;;;5019129;28;20397;-79
2022/09/24 13:09:55;;;;;;;2.78;1.50;;;;;;;;;;5053505;28;20095;-79
2022/09/24 13:12:31;;;;;;;3.58;1.95;;;;;;;;;;5035696;28;20033;-79
2022/09/24 13:15:01;;;;;;;2.72;1.50;;;;;;;;;;5019197;28;20439;-79
2022/09/24 13:17:29;;;;;;;2.75;1.50;;;;;;;;;;5019113;28;20024;-79
2022/09/24 13:19:57;;;;;;;3.60;1.63;;;;;;;;;;5018931;28;20108;-79
2022/09/24 13:22:28;;;;;;;3.65;1.58;;;;;;;;;;5035481;28;20449;-79
2022/09/24 13:25:06;;;;;;;2.63;1.40;;;;;;;;;;5035766;28;20450;-79
2022/09/24 13:27:31;;;;;;;3.60;1.60;;;;;;;;;;5053625;28;20024;-79
2022/09/24 13:30:15;;;;;;;1.92;1.65;;;;;;;;;;5053410;28;20113;-79
2022/09/24 13:33:03;;;;;;;2.28;1.50;;;;;;;;;;5035172;28;20368;-79
2022/09/24 13:35:33;;;;;;;2.65;1.83;;;;;;;;;;5035664;28;20386;-80
2022/09/24 13:38:22;;;;;;;3.13;1.70;;;;;;;;;;5018810;28;20551;-79
2022/09/24 13:40:55;;;;;;;3.35;1.70;;;;;;;;;;5035579;28;20031;-80
2022/09/24 13:43:43;;;;;;;2.00;1.60;;;;;;;;;;5035896;28;20025;-80
2022/09/24 13:46:13;;;;;;;5.70;1.90;;;;;;;;;;5018754;28;20087;-80
2022/09/24 13:48:50;;;;;;;5.30;1.77;;;;;;;;;;5035201;28;20039;-79
2022/09/24 13:51:17;;;;;;;4.35;1.95;;;;;;;;;;5035090;28;20028;-79
2022/09/24 13:53:51;;;;;;;3.78;1.80;;;;;;;;;;5035021;28;20036;-79
2022/09/24 13:56:18;;;;;;;4.70;1.70;;;;;;;;;;5018713;28;20041;-79
2022/09/24 13:58:43;;;;;;;5.43;1.95;;;;;;;;;;5035637;28;20531;-80
2022/09/24 14:01:18;;;;;;;2.65;1.40;;;;;;;;;;5038983;28;20060;-80
2022/09/24 14:03:55;;;;;;;2.97;1.88;;;;;;;;;;5038912;28;20119;-79
2022/09/24 14:06:31;;;;;;;6.60;1.50;;;;;;;;;;5056853;28;20036;-79
2022/09/24 14:08:57;;;;;;;2.45;1.52;;;;;;;;;;5038987;28;20024;-79
2022/09/24 14:11:23;;;;;;;2.22;1.30;;;;;;;;;;5022252;28;20025;-79
2022/09/24 14:13:50;;;;;;;2.88;1.42;;;;;;;;;;5038919;28;20064;-79
2022/09/24 14:16:17;;;;;;;3.88;1.30;;;;;;;;;;5039023;28;20032;-83
2022/09/24 14:18:43;;;;;;;2.70;1.50;;;;;;;;;;5038726;28;20032;-83
2022/09/24 14:21:14;;;;;;;5.60;1.77;;;;;;;;;;5056628;28;20029;-84
2022/09/24 14:23:48;;;;;;;1.92;1.40;;;;;;;;;;5038681;28;20107;-82
2022/09/24 14:26:24;;;;;;;3.00;1.70;;;;;;;;;;5038744;28;20036;-80
2022/09/24 14:28:49;;;;;;;5.40;1.80;;;;;;;;;;5021810;28;20024;-80
2022/09/24 14:31:15;;;;;;;3.40;1.70;;;;;;;;;;5038936;28;20040;-80
2022/09/24 14:33:41;;;;;;;4.88;1.73;;;;;;;;;;5038191;28;20039;-80
2022/09/24 14:36:09;;;;;;;6.40;2.45;;;;;;;;;;5038222;28;20051;-80
2022/09/24 14:38:46;;;;;;;4.38;1.70;;;;;;;;;;5055989;28;20075;-80
2022/09/24 14:41:18;;;;;;;4.22;1.80;;;;;;;;;;5021679;28;20057;-80
2022/09/24 14:43:47;;;;;;;4.85;2.08;;;;;;;;;;5038565;28;20055;-80
2022/09/24 14:46:26;;;;;;;9.75;2.00;;;;;;;;;;5056130;28;20021;-80
2022/09/24 14:49:05;;;;;;;3.55;1.77;;;;;;;;;;5021621;28;20139;-80
2022/09/24 14:51:31;;;;;;;2.88;1.55;;;;;;;;;;5038028;28;20056;-80
2022/09/24 14:54:20;;;;;;;3.70;1.60;;;;;;;;;;5021724;28;20032;-80
2022/09/24 14:56:46;;;;;;;5.60;2.08;;;;;;;;;;5038129;28;20392;-80
2022/09/24 14:59:24;;;;;;;6.13;2.58;;;;;;;;;;5037883;28;20025;-80
2022/09/24 15:01:49;;;;;;;5.35;2.28;;;;;;;;;;5037924;28;20128;-80
2022/09/24 15:04:19;;;;;;;8.48;2.25;;;;;;;;;;5056076;28;20484;-80
2022/09/24 15:06:46;;;;;;;5.72;1.73;;;;;;;;;;5037632;28;20024;-80
2022/09/24 15:09:24;;;;;;;3.10;1.67;;;;;;;;;;5037750;28;20511;-80
2022/09/24 15:11:49;;;;;;;5.22;1.70;;;;;;;;;;5037496;28;20064;-80
2022/09/24 15:14:14;;;;;;;5.57;1.80;;;;;;;;;;5055560;28;20132;-79
2022/09/24 15:16:40;;;;;;;7.25;2.03;;;;;;;;;;5037574;28;20035;-80